Time;durP1;ratioP1;P1;durP2;ratioP2;P2;SDS_P1;SDS_P2;PMS_P1;PMS_P2;Temp;Humidity;BMP_temperature;BMP_pressure;BME280_temperature;BME280_humidity;BME280_pressure;Samples;Min_cycle;Max_cycle;Signal;HPM_P1;HPM_P2
2023/04/14 00:00:58;;;;;;;11.40;1.90;;;7.70;99.90;;;;;;5096659;28;20310;-74
2023/04/14 00:03:24;;;;;;;8.85;1.60;;;7.70;99.90;;;;;;5096636;28;20044;-74
2023/04/14 00:05:49;;;;;;;10.25;2.60;;;7.70;99.90;;;;;;5096369;28;20127;-74
2023/04/14 00:08:15;;;;;;;7.05;1.40;;;7.80;99.90;;;;;;5096623;28;20040;-74
2023/04/14 00:10:41;;;;;;;10.20;1.90;;;7.70;99.90;;;;;;5099600;28;20067;-74
2023/04/14 00:13:07;;;;;;;7.03;1.58;;;7.70;99.90;;;;;;5100609;28;20039;-74
2023/04/14 00:15:32;;;;;;;10.25;1.90;;;7.70;99.90;;;;;;5100493;28;20456;-74
2023/04/14 00:17:58;;;;;;;7.65;2.03;;;7.70;99.90;;;;;;5100475;28;20098;-74
2023/04/14 00:20:23;;;;;;;12.98;2.63;;;7.60;99.90;;;;;;5100481;28;20047;-74
2023/04/14 00:22:49;;;;;;;15.63;2.38;;;7.60;99.90;;;;;;5099998;28;20095;-74
2023/04/14 00:25:15;;;;;;;13.40;2.00;;;7.60;99.90;;;;;;5099931;28;20047;-74
2023/04/14 00:27:41;;;;;;;10.88;2.05;;;7.70;99.90;;;;;;5100166;28;20076;-74
2023/04/14 00:30:07;;;;;;;11.25;2.00;;;7.60;99.90;;;;;;5100206;28;20032;-74
2023/04/14 00:32:33;;;;;;;8.75;2.10;;;7.60;99.90;;;;;;5099843;28;20044;-74
2023/04/14 00:34:59;;;;;;;9.75;1.80;;;7.60;99.90;;;;;;5099805;28;20036;-74
2023/04/14 00:37:25;;;;;;;9.50;2.13;;;7.60;99.90;;;;;;5099789;28;20044;-74
2023/04/14 00:39:50;;;;;;;9.70;1.77;;;7.60;99.90;;;;;;5099739;28;20444;-74
2023/04/14 00:42:16;;;;;;;7.82;1.85;;;7.50;99.90;;;;;;5099683;28;20071;-74
2023/04/14 00:44:42;;;;;;;7.60;1.90;;;7.50;99.90;;;;;;5099645;28;20051;-74
2023/04/14 00:47:08;;;;;;;10.43;2.47;;;7.30;99.90;;;;;;5098984;28;20036;-73
2023/04/14 00:49:35;;;;;;;10.63;1.73;;;7.30;99.90;;;;;;5099815;28;20032;-74
2023/04/14 00:52:02;;;;;;;7.10;1.75;;;7.30;99.90;;;;;;5098588;28;20089;-74
2023/04/14 00:54:30;;;;;;;9.85;2.10;;;7.40;99.90;;;;;;5099434;28;20052;-74
2023/04/14 00:56:56;;;;;;;8.05;2.00;;;7.30;99.90;;;;;;5099732;28;20048;-74
2023/04/14 00:59:22;;;;;;;10.00;2.35;;;7.30;99.90;;;;;;5099409;28;20514;-74
2023/04/14 01:01:48;;;;;;;9.77;2.22;;;7.30;99.90;;;;;;5099563;28;20028;-74
2023/04/14 01:04:15;;;;;;;7.75;2.45;;;7.30;99.90;;;;;;5098238;28;20040;-74
2023/04/14 01:06:40;;;;;;;7.75;1.95;;;7.30;99.90;;;;;;5099600;28;20036;-74
2023/04/14 01:09:08;;;;;;;10.00;2.08;;;7.20;99.90;;;;;;5099498;28;20482;-74
2023/04/14 01:11:47;;;;;;;6.43;1.77;;;7.10;99.90;;;;;;5098156;28;20040;-73
2023/04/14 01:14:22;;;;;;;5.53;1.65;;;7.00;99.90;;;;;;5099491;28;20047;-74
2023/04/14 01:16:50;;;;;;;11.40;2.17;;;7.00;99.90;;;;;;5099412;28;20044;-74
2023/04/14 01:19:25;;;;;;;6.80;1.95;;;6.90;99.90;;;;;;5099326;28;20315;-74
2023/04/14 01:21:56;;;;;;;7.95;1.55;;;7.00;99.90;;;;;;5092653;28;20059;-74
2023/04/14 01:24:43;;;;;;;6.05;1.60;;;6.90;99.90;;;;;;5096245;28;20040;-74
2023/04/14 01:27:43;;;;;;;10.13;2.00;;;6.80;99.90;;;;;;5099143;28;20052;-74
2023/04/14 01:30:27;;;;;;;5.93;1.70;;;6.80;99.90;;;;;;5099139;28;20294;-74
2023/04/14 01:32:56;;;;;;;5.70;2.00;;;6.80;99.90;;;;;;5099075;28;20082;-74
2023/04/14 01:35:33;;;;;;;8.85;1.85;;;6.90;99.90;;;;;;5099039;28;20438;-74
2023/04/14 01:38:05;;;;;;;11.05;2.20;;;7.00;99.90;;;;;;5098975;28;20042;-74
2023/04/14 01:40:32;;;;;;;5.38;1.75;;;7.00;99.90;;;;;;5098840;28;20036;-74
2023/04/14 01:43:04;;;;;;;12.07;2.25;;;6.90;99.90;;;;;;5098770;28;20078;-74
2023/04/14 01:45:43;;;;;;;8.95;2.20;;;6.70;99.90;;;;;;5098763;28;20119;-74
2023/04/14 01:48:10;;;;;;;6.05;1.67;;;6.50;99.90;;;;;;5098661;28;20039;-74
2023/04/14 01:50:37;;;;;;;7.45;1.65;;;6.40;99.90;;;;;;5098260;28;20445;-74
2023/04/14 01:53:05;;;;;;;8.13;1.90;;;6.50;99.90;;;;;;5098667;28;20397;-74
2023/04/14 01:55:36;;;;;;;10.77;1.90;;;6.60;99.90;;;;;;5098155;28;20044;-74
2023/04/14 01:58:02;;;;;;;7.35;1.25;;;6.70;99.90;;;;;;5098674;28;20047;-74
2023/04/14 02:00:29;;;;;;;5.43;1.80;;;6.70;99.90;;;;;;5098217;28;20040;-74
2023/04/14 02:02:55;;;;;;;8.48;1.95;;;6.70;99.90;;;;;;5098396;28;20036;-74
2023/04/14 02:05:22;;;;;;;8.38;1.90;;;6.70;99.90;;;;;;5096912;28;20351;-73
2023/04/14 02:07:50;;;;;;;7.70;1.85;;;6.80;99.90;;;;;;5098315;28;20055;-74
2023/04/14 02:10:19;;;;;;;6.18;2.05;;;6.80;99.90;;;;;;5098320;28;20036;-74
2023/04/14 02:12:45;;;;;;;6.07;1.60;;;6.80;99.90;;;;;;5098308;28;20048;-74
2023/04/14 02:15:16;;;;;;;4.90;1.55;;;6.80;99.90;;;;;;5098007;28;20044;-74
2023/04/14 02:17:43;;;;;;;8.70;1.70;;;6.90;99.90;;;;;;5098248;28;20128;-74
2023/04/14 02:20:11;;;;;;;6.40;2.03;;;6.90;99.90;;;;;;5098135;28;20068;-74
2023/04/14 02:22:37;;;;;;;10.20;2.00;;;6.90;99.90;;;;;;5097981;28;20058;-74
2023/04/14 02:25:04;;;;;;;8.70;1.92;;;6.90;99.90;;;;;;5097678;28;20417;-74
2023/04/14 02:27:36;;;;;;;5.97;1.80;;;6.90;99.90;;;;;;5097058;28;20307;-74
2023/04/14 02:30:10;;;;;;;6.22;1.63;;;6.90;99.90;;;;;;5098012;28;20061;-74
2023/04/14 02:32:39;;;;;;;8.18;1.80;;;6.90;99.90;;;;;;5097261;28;20119;-74
2023/04/14 02:35:18;;;;;;;7.35;1.80;;;7.00;99.90;;;;;;5097863;28;20379;-74
2023/04/14 02:37:49;;;;;;;6.15;1.75;;;7.10;99.90;;;;;;5097837;28;20040;-74
2023/04/14 02:40:24;;;;;;;9.52;2.22;;;7.20;99.90;;;;;;5097740;28;20032;-74
2023/04/14 02:42:56;;;;;;;5.43;1.58;;;7.10;99.90;;;;;;5097703;28;20337;-74
2023/04/14 02:45:24;;;;;;;9.02;1.90;;;7.20;99.90;;;;;;5097727;28;20028;-74
2023/04/14 02:47:55;;;;;;;6.05;1.73;;;7.20;99.90;;;;;;5096314;28;20375;-74
2023/04/14 02:50:22;;;;;;;4.85;1.73;;;7.30;99.90;;;;;;5097866;28;20086;-74
2023/04/14 02:52:50;;;;;;;10.70;2.10;;;7.30;99.90;;;;;;5097579;28;20047;-74
2023/04/14 02:55:18;;;;;;;13.02;2.30;;;7.40;99.90;;;;;;5096785;28;20055;-74
2023/04/14 02:57:46;;;;;;;7.15;1.73;;;7.50;99.90;;;;;;5097482;28;20048;-74
2023/04/14 03:00:13;;;;;;;4.90;1.15;;;7.50;99.90;;;;;;5097466;28;20063;-74
2023/04/14 03:02:38;;;;;;;4.82;1.63;;;7.50;99.90;;;;;;5097243;28;20040;-74
2023/04/14 03:05:05;;;;;;;8.50;1.83;;;7.50;99.90;;;;;;5096948;28;20048;-74
2023/04/14 03:07:32;;;;;;;10.30;2.03;;;7.50;99.90;;;;;;5097010;28;20422;-74
2023/04/14 03:09:59;;;;;;;5.85;1.63;;;7.60;99.90;;;;;;5096979;28;20043;-74
2023/04/14 03:12:26;;;;;;;8.05;2.17;;;7.60;99.90;;;;;;5097209;28;20047;-74
2023/04/14 03:14:52;;;;;;;5.18;1.73;;;7.60;99.90;;;;;;5097217;28;20040;-74
2023/04/14 03:17:20;;;;;;;7.43;1.70;;;7.50;99.90;;;;;;5096925;28;20054;-74
2023/04/14 03:19:47;;;;;;;7.75;2.30;;;7.40;99.90;;;;;;5097126;28;20111;-74
2023/04/14 03:22:19;;;;;;;4.65;1.50;;;7.30;99.90;;;;;;5096807;28;20079;-74
2023/04/14 03:24:45;;;;;;;7.35;1.92;;;7.30;99.90;;;;;;5097011;28;20402;-74
2023/04/14 03:27:20;;;;;;;8.93;1.92;;;7.30;99.90;;;;;;5097049;28;20075;-74
2023/04/14 03:29:50;;;;;;;4.93;1.45;;;7.30;99.90;;;;;;5097121;28;20110;-74
2023/04/14 03:32:18;;;;;;;6.43;2.00;;;7.20;99.90;;;;;;5096969;28;20032;-74
2023/04/14 03:34:47;;;;;;;8.68;1.83;;;7.20;99.90;;;;;;5096865;28;20047;-74
2023/04/14 03:37:17;;;;;;;6.78;1.88;;;7.10;99.90;;;;;;5096909;28;20036;-74
2023/04/14 03:39:46;;;;;;;10.57;1.85;;;7.10;99.90;;;;;;5096609;28;20498;-74
2023/04/14 03:42:12;;;;;;;6.95;1.70;;;7.10;99.90;;;;;;5096480;28;20348;-74
2023/04/14 03:44:41;;;;;;;7.03;1.58;;;7.10;99.90;;;;;;5098030;28;20054;-73
2023/04/14 03:47:09;;;;;;;7.57;2.22;;;7.10;99.90;;;;;;5100735;28;20319;-74
2023/04/14 03:49:38;;;;;;;9.73;2.30;;;7.10;99.90;;;;;;5101023;28;20040;-73
2023/04/14 03:52:09;;;;;;;11.15;2.10;;;7.10;99.90;;;;;;5100753;28;20115;-74
2023/04/14 03:54:37;;;;;;;10.63;2.08;;;7.10;99.90;;;;;;5100584;28;20044;-74
2023/04/14 03:57:07;;;;;;;6.63;1.80;;;7.10;99.90;;;;;;5100824;28;20048;-74
2023/04/14 03:59:35;;;;;;;3.88;1.70;;;7.10;99.90;;;;;;5100916;28;20028;-74
2023/04/14 04:02:01;;;;;;;5.75;1.90;;;7.00;99.90;;;;;;5099591;28;20048;-74
2023/04/14 04:04:29;;;;;;;5.43;1.67;;;6.90;99.90;;;;;;5099497;28;20091;-74
2023/04/14 04:06:56;;;;;;;9.50;1.85;;;6.80;99.90;;;;;;5100307;28;20077;-74
2023/04/14 04:09:23;;;;;;;10.35;2.22;;;6.90;99.90;;;;;;5100640;28;20062;-74
2023/04/14 04:11:51;;;;;;;6.88;2.15;;;6.90;99.90;;;;;;5100399;28;20464;-74
2023/04/14 04:14:20;;;;;;;7.57;2.42;;;7.00;99.90;;;;;;5100641;28;20117;-74
2023/04/14 04:16:50;;;;;;;9.48;2.30;;;7.10;99.90;;;;;;5100249;28;20479;-74
2023/04/14 04:19:20;;;;;;;8.45;2.17;;;7.10;99.90;;;;;;5100440;28;20040;-74
2023/04/14 04:21:49;;;;;;;6.25;2.17;;;7.10;99.90;;;;;;5100202;28;20417;-73
2023/04/14 04:24:16;;;;;;;9.23;1.98;;;7.30;99.90;;;;;;5099586;28;20498;-74
2023/04/14 04:26:42;;;;;;;6.55;2.50;;;7.30;99.90;;;;;;5100417;28;20097;-74
2023/04/14 04:29:09;;;;;;;8.25;2.30;;;7.30;99.90;;;;;;5100329;28;20040;-74
2023/04/14 04:31:35;;;;;;;7.28;2.22;;;7.30;99.90;;;;;;5100253;28;20076;-74
2023/04/14 04:34:04;;;;;;;9.48;2.55;;;7.20;99.90;;;;;;5099885;28;20043;-74
2023/04/14 04:36:31;;;;;;;10.15;2.80;;;7.20;99.90;;;;;;5099850;28;20040;-74
2023/04/14 04:38:57;;;;;;;5.45;1.98;;;7.20;99.90;;;;;;5100184;28;20040;-74
2023/04/14 04:41:27;;;;;;;8.23;2.20;;;7.30;99.90;;;;;;5099981;28;20131;-74
2023/04/14 04:43:53;;;;;;;7.78;2.38;;;7.30;99.90;;;;;;5099957;28;20076;-74
2023/04/14 04:46:54;;;;;;;8.55;2.58;;;7.30;99.90;;;;;;5100012;28;20028;-73
2023/04/14 04:49:20;;;;;;;6.18;1.70;;;7.20;99.90;;;;;;5099932;28;20032;-74
2023/04/14 04:51:46;;;;;;;7.50;2.55;;;7.20;99.90;;;;;;5099824;28;20040;-74
2023/04/14 04:54:12;;;;;;;8.20;2.42;;;7.20;99.90;;;;;;5099373;28;20340;-74
2023/04/14 04:56:37;;;;;;;9.50;2.08;;;7.10;99.90;;;;;;5099454;28;20101;-74
2023/04/14 04:59:03;;;;;;;6.78;1.95;;;7.00;99.90;;;;;;5099722;28;20391;-74
2023/04/14 05:01:29;;;;;;;7.45;2.40;;;7.00;99.90;;;;;;5099412;28;20040;-74
2023/04/14 05:03:55;;;;;;;6.63;2.17;;;7.00;99.90;;;;;;5099236;28;20421;-74
2023/04/14 05:06:21;;;;;;;4.80;2.30;;;7.00;99.90;;;;;;5098248;28;20048;-74
2023/04/14 05:08:49;;;;;;;7.97;2.10;;;7.00;99.90;;;;;;5115468;28;20052;-74
2023/04/14 05:11:15;;;;;;;6.13;1.67;;;7.10;99.90;;;;;;5098188;28;20040;-74
2023/04/14 05:13:40;;;;;;;6.65;2.83;;;7.30;99.90;;;;;;5099160;28;20101;-74
2023/04/14 05:16:08;;;;;;;7.07;2.53;;;7.30;99.90;;;;;;5099108;28;20040;-74
2023/04/14 05:18:35;;;;;;;8.38;2.53;;;7.40;99.90;;;;;;5099359;28;20043;-74
2023/04/14 05:21:14;;;;;;;8.68;2.35;;;7.50;99.90;;;;;;5099293;28;20108;-73
2023/04/14 05:23:43;;;;;;;6.90;2.60;;;7.70;99.90;;;;;;5098798;28;20040;-74
2023/04/14 05:26:11;;;;;;;7.43;2.00;;;7.70;99.90;;;;;;5099170;28;20044;-74
2023/04/14 05:28:38;;;;;;;10.27;2.60;;;7.80;99.90;;;;;;5098077;28;20040;-74
2023/04/14 05:31:03;;;;;;;6.40;2.83;;;7.90;99.90;;;;;;5099095;28;20040;-74
2023/04/14 05:33:29;;;;;;;8.48;2.75;;;8.00;99.90;;;;;;5115029;28;20324;-74
2023/04/14 05:35:55;;;;;;;9.38;2.85;;;8.10;99.90;;;;;;5099019;28;20036;-74
2023/04/14 05:38:21;;;;;;;9.50;3.13;;;8.20;99.90;;;;;;5098955;28;20119;-74
2023/04/14 05:40:47;;;;;;;10.90;3.05;;;8.30;99.90;;;;;;5098875;28;20039;-74
2023/04/14 05:43:13;;;;;;;7.72;2.40;;;8.30;99.90;;;;;;5098817;28;20130;-74
2023/04/14 05:45:39;;;;;;;9.57;2.47;;;8.40;99.90;;;;;;5098534;28;20101;-73
2023/04/14 05:48:05;;;;;;;9.55;2.50;;;8.50;99.90;;;;;;5098740;28;20039;-73
2023/04/14 05:50:32;;;;;;;8.05;2.67;;;8.50;99.90;;;;;;5099269;28;20119;-73
2023/04/14 05:52:59;;;;;;;7.25;2.65;;;8.50;99.90;;;;;;5098646;28;20048;-74
2023/04/14 05:55:25;;;;;;;9.02;2.88;;;8.50;99.90;;;;;;5098244;28;20072;-74
2023/04/14 05:57:51;;;;;;;8.65;2.40;;;8.50;99.90;;;;;;5098569;28;20074;-74
2023/04/14 06:00:17;;;;;;;11.25;3.35;;;8.40;99.90;;;;;;5098544;28;20091;-74
2023/04/14 06:02:44;;;;;;;4.25;2.17;;;8.40;99.90;;;;;;5098079;28;20036;-74
2023/04/14 06:05:11;;;;;;;7.97;2.47;;;8.40;99.90;;;;;;5098213;28;20056;-73
2023/04/14 06:07:37;;;;;;;13.57;3.22;;;8.40;99.90;;;;;;5097436;28;20104;-73
2023/04/14 06:10:03;;;;;;;11.80;2.85;;;8.50;99.90;;;;;;5098324;28;20051;-74
2023/04/14 06:12:29;;;;;;;8.13;2.90;;;8.50;99.90;;;;;;5098751;28;20036;-74
2023/04/14 06:14:55;;;;;;;7.15;2.80;;;8.50;99.90;;;;;;5098263;28;20051;-74
2023/04/14 06:17:21;;;;;;;7.35;2.65;;;8.50;99.90;;;;;;5098207;28;20032;-74
2023/04/14 06:19:47;;;;;;;7.47;2.75;;;8.60;99.90;;;;;;5097937;28;20040;-74
2023/04/14 06:22:18;;;;;;;6.68;2.80;;;8.70;99.90;;;;;;5098135;28;20036;-74
2023/04/14 06:24:47;;;;;;;6.95;3.00;;;8.80;99.90;;;;;;5097373;28;20425;-73
2023/04/14 06:27:14;;;;;;;9.35;2.45;;;8.90;99.90;;;;;;5098064;28;20072;-73
2023/04/14 06:29:40;;;;;;;12.00;2.65;;;9.10;99.90;;;;;;5097257;28;20047;-74
2023/04/14 06:32:06;;;;;;;7.80;1.90;;;9.20;99.90;;;;;;5097912;28;20314;-73
2023/04/14 06:34:32;;;;;;;10.40;2.35;;;9.20;99.90;;;;;;5097920;28;20054;-73
2023/04/14 06:36:57;;;;;;;9.32;1.92;;;9.10;99.90;;;;;;5097501;28;20044;-73
2023/04/14 06:39:24;;;;;;;14.10;2.67;;;9.30;99.90;;;;;;5097839;28;20043;-73
2023/04/14 06:41:50;;;;;;;6.25;1.83;;;9.40;99.90;;;;;;5097774;28;20040;-74
2023/04/14 06:44:16;;;;;;;13.23;2.10;;;9.50;99.90;;;;;;5097307;28;20047;-74
2023/04/14 06:46:41;;;;;;;12.63;2.53;;;9.60;99.90;;;;;;5097674;28;20036;-73
2023/04/14 06:49:07;;;;;;;7.78;2.00;;;9.70;99.90;;;;;;5097617;28;20036;-73
2023/04/14 06:51:33;;;;;;;8.90;2.50;;;9.80;99.90;;;;;;5097594;28;20035;-73
2023/04/14 06:53:59;;;;;;;14.82;2.70;;;9.90;99.90;;;;;;5097118;28;20507;-73
2023/04/14 06:56:25;;;;;;;11.30;2.42;;;9.90;99.90;;;;;;5097440;28;20035;-73
2023/04/14 06:58:50;;;;;;;8.20;2.10;;;10.00;99.90;;;;;;5097449;28;20040;-73
2023/04/14 07:01:16;;;;;;;9.25;2.35;;;10.00;99.90;;;;;;5097131;28;20043;-73
2023/04/14 07:03:43;;;;;;;9.20;2.00;;;10.10;99.90;;;;;;5097261;28;20102;-73
2023/04/14 07:06:14;;;;;;;7.82;1.80;;;10.20;99.90;;;;;;5096925;28;20130;-73
2023/04/14 07:08:40;;;;;;;12.38;2.05;;;10.20;99.90;;;;;;5097335;28;20093;-73
2023/04/14 07:11:10;;;;;;;10.65;2.00;;;10.20;99.90;;;;;;5095936;28;20334;-73
2023/04/14 07:13:36;;;;;;;13.18;2.00;;;10.40;99.90;;;;;;5097324;28;20119;-74
2023/04/14 07:16:03;;;;;;;8.95;1.55;;;10.20;99.90;;;;;;5097156;28;20075;-73
2023/04/14 07:18:30;;;;;;;7.60;1.35;;;10.20;99.90;;;;;;5097125;28;20093;-73
2023/04/14 07:20:56;;;;;;;10.93;1.83;;;10.30;99.90;;;;;;5097120;28;20066;-73
2023/04/14 07:23:22;;;;;;;12.40;1.52;;;10.40;99.90;;;;;;5097012;28;20044;-73
2023/04/14 07:25:55;;;;;;;9.73;1.70;;;10.50;99.90;;;;;;5096299;28;20040;-73
2023/04/14 07:28:21;;;;;;;15.10;1.45;;;10.50;99.90;;;;;;5096997;28;20089;-72
2023/04/14 07:30:48;;;;;;;6.60;1.52;;;10.50;99.90;;;;;;5095625;28;20310;-73
2023/04/14 07:33:18;;;;;;;8.10;1.23;;;10.50;99.90;;;;;;5096931;28;20055;-73
2023/04/14 07:35:44;;;;;;;8.10;1.50;;;10.60;99.90;;;;;;5096624;28;20333;-73
2023/04/14 07:38:10;;;;;;;8.70;1.35;;;10.60;99.90;;;;;;5096835;28;20047;-69
2023/04/14 07:40:36;;;;;;;8.77;1.73;;;10.80;99.90;;;;;;5096846;28;20048;-69
2023/04/14 07:43:02;;;;;;;8.90;1.30;;;10.90;99.90;;;;;;5096832;28;20040;-69
2023/04/14 07:45:28;;;;;;;5.63;1.10;;;11.10;99.90;;;;;;5096894;28;20054;-70
2023/04/14 07:47:54;;;;;;;9.40;1.42;;;11.30;99.90;;;;;;5096735;28;20046;-69
2023/04/14 07:50:20;;;;;;;8.55;1.58;;;11.40;99.90;;;;;;5096776;28;20032;-68
2023/04/14 07:52:45;;;;;;;14.90;1.55;;;11.30;99.90;;;;;;5096467;28;20075;-68
2023/04/14 07:55:11;;;;;;;8.15;1.80;;;11.30;99.90;;;;;;5096337;28;20032;-68
2023/04/14 07:57:39;;;;;;;6.78;1.52;;;11.40;99.90;;;;;;5096702;28;20044;-68
2023/04/14 08:00:05;;;;;;;9.88;1.52;;;11.40;99.90;;;;;;5096707;28;20036;-68
2023/04/14 08:02:31;;;;;;;11.93;1.60;;;11.40;99.90;;;;;;5096590;28;20044;-68
2023/04/14 08:04:57;;;;;;;15.02;1.88;;;11.50;99.90;;;;;;5096273;28;20123;-69
2023/04/14 08:07:22;;;;;;;5.85;0.95;;;11.70;99.90;;;;;;5096698;28;20056;-68
2023/04/14 08:09:48;;;;;;;9.77;1.20;;;11.90;99.90;;;;;;5096565;28;20429;-69
2023/04/14 08:12:15;;;;;;;7.68;1.35;;;12.00;99.90;;;;;;5096629;28;20039;-68
2023/04/14 08:14:43;;;;;;;14.13;2.30;;;12.10;99.90;;;;;;5096581;28;20069;-68
2023/04/14 08:17:09;;;;;;;12.15;1.85;;;12.20;99.90;;;;;;5095570;28;20119;-68
2023/04/14 08:19:35;;;;;;;7.72;1.98;;;12.30;99.90;;;;;;5096536;28;20120;-69
2023/04/14 08:22:02;;;;;;;10.43;1.73;;;12.40;99.90;;;;;;5096452;28;20050;-69
2023/04/14 08:24:27;;;;;;;13.93;1.70;;;12.60;99.90;;;;;;5094721;28;20337;-69
2023/04/14 08:26:54;;;;;;;16.15;2.50;;;12.60;99.90;;;;;;5095203;28;20040;-69
2023/04/14 08:29:20;;;;;;;8.25;1.52;;;12.60;99.90;;;;;;5096435;28;20040;-68
2023/04/14 08:31:46;;;;;;;11.30;2.15;;;12.70;99.90;;;;;;5099249;28;20040;-68
2023/04/14 08:34:12;;;;;;;6.30;1.73;;;12.60;99.90;;;;;;5100196;28;20063;-69
2023/04/14 08:36:37;;;;;;;8.30;1.75;;;12.40;99.90;;;;;;5100143;28;20338;-69
2023/04/14 08:39:03;;;;;;;9.13;2.08;;;12.60;99.90;;;;;;5100071;28;20036;-69
2023/04/14 08:41:32;;;;;;;10.10;2.20;;;12.70;99.90;;;;;;5100069;28;20045;-69
2023/04/14 08:43:58;;;;;;;10.93;2.47;;;12.80;99.90;;;;;;5099945;28;20093;-68
2023/04/14 08:46:26;;;;;;;12.27;2.20;;;12.80;99.90;;;;;;5099756;28;20036;-69
2023/04/14 08:48:57;;;;;;;9.40;2.20;;;12.90;99.90;;;;;;5099659;28;20441;-70
2023/04/14 08:51:30;;;;;;;11.07;2.67;;;13.10;99.90;;;;;;5099990;28;20064;-70
2023/04/14 08:53:57;;;;;;;11.10;2.03;;;13.10;99.90;;;;;;5099458;28;20051;-70
2023/04/14 08:56:26;;;;;;;11.05;2.53;;;13.30;99.90;;;;;;5099774;28;20040;-69
2023/04/14 08:58:52;;;;;;;10.13;1.90;;;13.40;99.90;;;;;;5081822;28;20484;-69
2023/04/14 09:01:18;;;;;;;11.00;1.40;;;13.50;99.90;;;;;;5099720;28;20058;-69
2023/04/14 09:03:45;;;;;;;10.77;1.73;;;13.50;99.90;;;;;;5099268;28;20459;-69
2023/04/14 09:06:11;;;;;;;8.52;1.80;;;13.50;99.90;;;;;;5099187;28;20135;-70
2023/04/14 09:08:37;;;;;;;9.85;1.83;;;13.60;99.90;;;;;;5099261;28;20444;-69
2023/04/14 09:11:03;;;;;;;11.07;2.08;;;13.70;99.90;;;;;;5098558;28;20040;-70
2023/04/14 09:13:30;;;;;;;5.72;1.35;;;13.80;99.90;;;;;;5099505;28;20075;-69
2023/04/14 09:15:56;;;;;;;8.93;1.73;;;13.70;99.90;;;;;;5099467;28;20047;-69
2023/04/14 09:18:23;;;;;;;13.85;2.20;;;13.60;99.90;;;;;;5078502;28;20445;-72
2023/04/14 09:20:51;;;;;;;9.95;1.35;;;13.80;99.90;;;;;;5094014;28;20045;-69
2023/04/14 09:23:18;;;;;;;11.18;1.73;;;14.00;99.90;;;;;;5078572;28;20118;-69
2023/04/14 09:25:44;;;;;;;10.43;1.90;;;14.10;99.90;;;;;;5078289;28;20497;-69
2023/04/14 09:28:10;;;;;;;9.35;1.77;;;14.20;99.90;;;;;;5078677;28;20109;-69
2023/04/14 09:30:36;;;;;;;15.35;2.15;;;14.40;99.90;;;;;;5077580;28;20072;-69
2023/04/14 09:33:06;;;;;;;8.55;1.90;;;14.40;99.90;;;;;;5077550;28;20079;-69
2023/04/14 09:35:48;;;;;;;8.98;1.58;;;14.10;99.90;;;;;;5078975;28;20056;-69
2023/04/14 09:38:15;;;;;;;8.52;2.15;;;14.40;99.90;;;;;;5078521;28;20120;-69
2023/04/14 09:40:43;;;;;;;9.10;1.70;;;14.40;99.90;;;;;;5078289;28;20111;-69
2023/04/14 09:43:24;;;;;;;8.00;1.83;;;14.30;99.90;;;;;;5077259;28;20045;-69
2023/04/14 09:45:50;;;;;;;11.05;3.00;;;14.30;99.90;;;;;;5079947;28;20091;-70
2023/04/14 09:48:15;;;;;;;9.82;1.50;;;14.70;99.90;;;;;;5093576;28;20035;-69
2023/04/14 09:51:05;;;;;;;10.50;1.67;;;14.70;99.90;;;;;;5095995;28;20036;-70
2023/04/14 09:53:40;;;;;;;8.43;2.55;;;14.80;99.90;;;;;;5078491;28;20094;-70
2023/04/14 09:56:10;;;;;;;13.27;1.95;;;14.90;99.90;;;;;;5075806;28;20051;-81
2023/04/14 09:58:44;;;;;;;9.82;1.83;;;14.70;99.90;;;;;;5077232;28;20052;-75
2023/04/14 10:01:15;;;;;;;11.05;1.67;;;14.30;99.90;;;;;;5078063;28;20440;-75
2023/04/14 10:03:48;;;;;;;8.77;1.60;;;13.80;99.90;;;;;;5076770;28;20040;-69
2023/04/14 10:06:17;;;;;;;8.98;1.65;;;14.00;99.90;;;;;;5076675;28;20337;-69
2023/04/14 10:08:49;;;;;;;8.45;2.28;;;14.30;99.90;;;;;;5078116;28;20086;-69
2023/04/14 10:11:16;;;;;;;7.22;1.92;;;14.70;99.90;;;;;;5078041;28;20036;-69
2023/04/14 10:13:46;;;;;;;9.82;2.40;;;15.10;99.90;;;;;;5077662;28;20441;-69
2023/04/14 10:16:13;;;;;;;11.75;2.20;;;15.50;99.90;;;;;;5077918;28;20044;-70
2023/04/14 10:18:39;;;;;;;8.48;1.90;;;15.60;99.90;;;;;;5077868;28;20352;-70
2023/04/14 10:21:07;;;;;;;15.88;2.70;;;15.70;99.90;;;;;;5077802;28;20048;-69
2023/04/14 10:23:35;;;;;;;9.30;1.90;;;15.80;99.90;;;;;;5077672;28;20114;-69
2023/04/14 10:26:02;;;;;;;9.05;2.08;;;16.00;99.90;;;;;;5076386;28;20330;-69
2023/04/14 10:28:29;;;;;;;8.85;2.42;;;16.10;99.90;;;;;;5077474;28;20076;-66
2023/04/14 10:30:56;;;;;;;8.98;1.98;;;16.20;99.90;;;;;;5077385;28;20097;-68
2023/04/14 10:33:23;;;;;;;9.82;2.20;;;16.00;99.90;;;;;;5077425;28;20389;-67
2023/04/14 10:35:56;;;;;;;9.57;2.35;;;16.30;99.90;;;;;;5077560;28;20040;-68
2023/04/14 10:38:35;;;;;;;11.93;2.97;;;16.60;99.90;;;;;;5077577;28;20051;-68
2023/04/14 10:41:03;;;;;;;6.68;2.00;;;16.70;99.90;;;;;;5077264;28;20449;-68
2023/04/14 10:43:29;;;;;;;63.15;16.83;;;16.80;99.90;;;;;;5077389;28;20093;-69
2023/04/14 10:45:56;;;;;;;20.38;5.75;;;16.90;99.90;;;;;;5077103;28;20116;-68
2023/04/14 10:48:27;;;;;;;26.42;8.45;;;16.80;99.90;;;;;;5077380;28;20037;-69
2023/04/14 10:50:58;;;;;;;10.23;2.00;;;17.10;99.90;;;;;;5077339;28;20044;-68
2023/04/14 10:53:25;;;;;;;29.63;7.10;;;17.10;99.90;;;;;;5076714;28;20040;-69
2023/04/14 10:55:56;;;;;;;12.00;2.42;;;17.10;99.90;;;;;;5076625;28;20040;-68
2023/04/14 10:58:28;;;;;;;6.80;1.90;;;17.20;99.90;;;;;;5077278;28;20036;-68
2023/04/14 11:00:56;;;;;;;22.58;4.20;;;17.20;99.90;;;;;;5077194;28;20064;-68
2023/04/14 11:03:22;;;;;;;6.68;1.83;;;17.10;99.90;;;;;;5076931;28;20123;-67
2023/04/14 11:05:49;;;;;;;11.43;1.98;;;17.20;99.90;;;;;;5076575;28;20044;-68
2023/04/14 11:08:25;;;;;;;5.80;1.80;;;17.50;99.90;;;;;;5077086;28;20051;-68
2023/04/14 11:11:00;;;;;;;7.22;1.80;;;17.70;99.90;;;;;;5075804;28;20464;-72
2023/04/14 11:13:27;;;;;;;8.93;2.00;;;17.00;99.90;;;;;;5077052;28;20047;-72
2023/04/14 11:16:13;;;;;;;7.90;2.05;;;16.50;99.90;;;;;;5077001;28;20044;-73
2023/04/14 11:18:44;;;;;;;7.72;2.28;;;16.10;99.90;;;;;;5077023;28;20303;-76
2023/04/14 11:21:13;;;;;;;6.50;1.85;;;15.90;99.90;;;;;;5076013;28;20097;-71
2023/04/14 11:23:39;;;;;;;13.50;2.55;;;15.50;99.90;;;;;;5076824;28;20044;-72
2023/04/14 11:26:07;;;;;;;12.25;2.30;;;15.70;99.90;;;;;;5076175;28;20434;-73
2023/04/14 11:28:37;;;;;;;8.80;2.28;;;16.00;99.90;;;;;;5076547;28;20123;-73
2023/04/14 11:31:05;;;;;;;8.70;2.30;;;16.00;99.90;;;;;;5076835;28;20111;-74
2023/04/14 11:33:36;;;;;;;7.40;2.30;;;16.10;99.90;;;;;;5076802;28;20040;-73
2023/04/14 11:36:04;;;;;;;11.52;2.00;;;15.90;99.90;;;;;;5076589;28;20036;-73
2023/04/14 11:38:31;;;;;;;12.50;2.70;;;15.60;99.90;;;;;;5075723;28;20037;-73
2023/04/14 11:40:57;;;;;;;12.88;2.83;;;15.40;99.90;;;;;;5076435;28;20041;-73
2023/04/14 11:43:23;;;;;;;10.02;2.03;;;15.20;99.90;;;;;;5075289;28;20437;-74
2023/04/14 11:45:51;;;;;;;9.43;2.38;;;15.00;99.90;;;;;;5076689;28;20037;-74
2023/04/14 11:48:19;;;;;;;15.70;3.38;;;15.10;99.90;;;;;;5076666;28;20124;-73
2023/04/14 11:50:46;;;;;;;11.13;2.88;;;15.20;99.90;;;;;;5076297;28;20036;-74
2023/04/14 11:53:14;;;;;;;9.50;2.30;;;15.10;99.90;;;;;;5076434;28;20060;-76
2023/04/14 11:55:42;;;;;;;11.55;2.35;;;15.30;99.90;;;;;;5076344;28;20041;-74
2023/04/14 11:58:09;;;;;;;9.85;2.22;;;15.80;99.90;;;;;;5075247;28;20388;-69
2023/04/14 12:00:35;;;;;;;8.70;2.20;;;15.80;99.90;;;;;;5076572;28;20048;-71
2023/04/14 12:03:02;;;;;;;9.95;2.60;;;16.10;99.90;;;;;;5075361;28;20048;-73
2023/04/14 12:05:30;;;;;;;8.00;2.05;;;16.10;99.90;;;;;;5077009;28;20113;-73
2023/04/14 12:07:59;;;;;;;9.93;2.22;;;15.80;99.90;;;;;;5080482;28;20039;-73
2023/04/14 12:10:25;;;;;;;12.65;2.15;;;15.50;99.90;;;;;;5080433;28;20044;-72
2023/04/14 12:13:05;;;;;;;10.07;1.90;;;15.30;99.90;;;;;;5080070;28;20322;-72
2023/04/14 12:15:33;;;;;;;10.57;1.98;;;15.30;99.90;;;;;;5080386;28;20036;-73
2023/04/14 12:18:00;;;;;;;13.65;1.90;;;15.80;99.90;;;;;;5080319;28;20041;-72
2023/04/14 12:20:27;;;;;;;8.65;1.48;;;16.30;99.90;;;;;;5080241;28;20128;-71
2023/04/14 12:23:01;;;;;;;9.45;1.60;;;16.30;99.90;;;;;;5080314;28;20044;-69
2023/04/14 12:25:33;;;;;;;9.65;1.85;;;16.60;99.90;;;;;;5079761;28;20080;-68
2023/04/14 12:28:05;;;;;;;7.53;1.70;;;16.50;99.90;;;;;;5080149;28;20032;-67
2023/04/14 12:30:35;;;;;;;5.60;1.60;;;16.20;99.90;;;;;;5079118;28;20036;-67
2023/04/14 12:33:10;;;;;;;8.98;2.00;;;16.00;99.90;;;;;;5079999;28;20044;-68
2023/04/14 12:35:37;;;;;;;5.95;1.50;;;16.00;99.90;;;;;;5079925;28;20045;-68
2023/04/14 12:38:13;;;;;;;5.65;1.48;;;16.30;99.90;;;;;;5079651;28;20048;-68
2023/04/14 12:40:42;;;;;;;7.15;1.63;;;16.20;99.90;;;;;;5079881;28;20040;-68
2023/04/14 12:43:08;;;;;;;8.90;1.83;;;16.50;99.90;;;;;;5079735;28;20047;-68
2023/04/14 12:45:44;;;;;;;7.60;1.90;;;17.00;99.90;;;;;;5079699;28;20047;-68
2023/04/14 12:48:15;;;;;;;7.47;1.75;;;17.20;99.90;;;;;;5079730;28;20048;-70
2023/04/14 12:50:41;;;;;;;8.73;1.50;;;17.10;99.90;;;;;;5079357;28;20477;-68
2023/04/14 12:53:27;;;;;;;7.28;1.73;;;17.30;99.90;;;;;;5079671;28;20128;-71